Latest Coastal Weather Observations for Sunshine Coast Airport

IDQ60701

Issued at 8:12 am EST Friday 24 November 2017 (issued every 10 minutes, with the page automatically refreshed every 10 minutes)

About coastal observations | Map of coastal stations | Coastal observations for QLD | Marine services | Other Formats
Station Details ID: 040861 Name: SUNSHINE COAST AIRPORT Lat: -26.60 Lon: 153.09 Height: 3.3 m
Data from the previous 72 hours. | See also: Recent months at Sunshine Coast Airport
Date/Time
EST
Temp
°C
Wind Pressure Rain since
9am
mm
Weather Cloud Vis
km
Sea
Height
m
Swell
Dir  Spd
kts
Gust
kts
hPa Trend Height
m
Period
s
Dir
24/08:00am 24.1 S 9 14 1016.2 - 1.2 - Clear 10 - - - -
24/07:30am 23.1 S 10 14 1016.2 - 1.2 - - 10 - - - -
24/07:00am 22.2 S 11 15 1016.2 - 1.2 - - 10 - - - -
24/06:30am 21.0 S 11 15 1015.9 - 1.2 - - 10 - - - -
24/06:00am 20.5 SSW 9 12 1015.6 - 1.2 - Partly cloudy 10 - - - -
24/05:30am 19.8 SSW 9 11 1015.4 - 1.2 - Partly cloudy 10 - - - -
24/05:00am 19.4 SSW 9 11 1015.2 - 1.2 - Partly cloudy 10 - - - -
24/04:30am 19.3 SSW 8 10 1014.9 - 1.2 - Partly cloudy 10 - - - -
24/04:00am 18.7 SW 5 7 1014.5 - 1.2 - - 10 - - - -
24/03:30am 18.5 SW 6 7 1014.4 - 1.2 - - 10 - - - -
24/03:00am 18.7 SW 5 6 1014.2 - 1.2 - Mostly clear 10 - - - -
24/02:30am 18.6 SW 4 6 1014.3 - 1.2 - Partly cloudy 10 - - - -
24/02:00am 18.8 SW 5 7 1014.4 - 1.2 - Partly cloudy 10 - - - -
24/01:30am 19.0 SW 5 7 1014.7 - 1.2 - Partly cloudy 10 - - - -
24/01:00am 19.3 SW 4 5 1015.1 - 1.2 - Partly cloudy 10 - - - -
24/12:30am 19.3 WSW 5 5 1015.2 - 1.2 - Partly cloudy 10 - - - -
24/12:00am 20.0 SW 5 6 1015.5 - 1.2 - Mostly cloudy 10 - - - -
 
Date/Time
EST
Temp
°C
Wind Pressure Rain since
9am
mm
Weather Cloud Vis
km
Sea
Height
m
Swell
Dir  Spd
kts
Gust
kts
hPa Trend Height
m
Period
s
Dir
23/11:30pm 20.6 S 5 8 1015.8 - 1.2 - Partly cloudy 10 - - - -
23/11:00pm 20.9 ESE 11 15 1016.0 - 1.2 - Partly cloudy 7 - - - -
23/10:30pm 22.1 SE 9 12 1016.0 - 0.2 - Partly cloudy 10 - - - -
23/10:00pm 22.0 SE 10 13 1016.2 - 0.2 - Partly cloudy 10 - - - -
23/09:30pm 22.3 SE 10 13 1016.2 - 0.2 - Partly cloudy 10 - - - -
23/09:00pm 22.3 SE 9 13 1016.1 - 0.2 - Cloudy 10 - - - -
23/08:30pm 22.2 SE 9 14 1016.1 - 0.2 - Partly cloudy 10 - - - -
23/08:00pm 22.2 SE 9 11 1015.8 - 0.2 - Partly cloudy 10 - - - -
23/07:30pm 22.1 SE 9 12 1015.5 - 0.2 - Partly cloudy 10 - - - -
23/07:00pm 22.1 SE 10 13 1015.2 - 0.2 - Partly cloudy 10 - - - -
23/06:30pm 22.2 SE 9 13 1015.0 - 0.2 - Partly cloudy 10 - - - -
23/06:00pm 22.5 SE 10 13 1014.9 - 0.2 - Partly cloudy 10 - - - -
23/05:30pm 22.7 ESE 11 14 1014.7 - 0.2 - Partly cloudy 10 - - - -
23/05:00pm 23.1 ESE 11 13 1014.4 - 0.2 - Partly cloudy 10 - - - -
23/04:30pm 24.0 SE 11 13 1014.2 - 0.2 - Partly cloudy 10 - - - -
23/04:00pm 24.2 ESE 11 15 1014.3 - 0.2 - Partly cloudy 10 - - - -
23/03:30pm 24.5 ESE 11 16 1014.3 - 0.2 - Partly cloudy 10 - - - -
23/03:00pm 25.0 ESE 12 15 1014.3 - 0.2 - Mostly clear 10 - - - -
23/02:30pm 24.5 ESE 12 16 1014.4 - 0.2 - Partly cloudy 10 - - - -
23/02:00pm 25.4 ESE 11 16 1014.5 - 0.2 - - 10 - - - -
23/01:30pm 24.8 SE 12 15 1014.6 - 0.2 - Partly cloudy 10 - - - -
23/01:00pm 25.1 SE 11 15 1014.8 - 0.2 - - 10 - - - -
23/12:30pm 25.4 ESE 10 14 1015.1 - 0.2 - Partly cloudy 10 - - - -
23/12:00pm 25.5 ESE 10 14 1015.4 - 0.2 - - 10 - - - -
23/11:30am 24.9 ESE 10 13 1015.7 - 0.2 - - 10 - - - -
23/11:00am 25.0 ESE 11 13 1015.9 - 0.2 - - 10 - - - -
23/10:30am 25.0 ESE 10 13 1016.0 - 0.0 - - 10 - - - -
23/10:00am 24.6 ESE 10 13 1016.0 - 0.0 - Partly cloudy 10 - - - -
23/09:30am 24.3 ESE 10 15 1016.0 - 0.0 - Partly cloudy 10 - - - -
23/09:00am 22.7 SSE 7 10 1016.1 - 22.0 - Cloudy 10 - - - -
23/08:30am 22.0 S 8 11 1016.0 - 22.0 - Partly cloudy 10 - - - -
23/08:00am 20.8 S 9 11 1015.9 - 22.0 - Partly cloudy 10 - - - -
23/07:30am 21.1 S 7 11 1015.9 - 22.0 - Partly cloudy 10 - - - -
23/07:00am 20.0 SW 6 7 1015.5 - 22.0 - Partly cloudy 10 - - - -
23/06:30am 19.0 SW 7 9 1015.2 - 22.0 - Partly cloudy 10 - - - -
23/06:00am 18.4 SSW 7 10 1015.1 - 22.0 - - 10 - - - -
23/05:30am 18.0 SSW 6 9 1014.8 - 22.0 - - 10 - - - -
23/05:00am 17.7 SW 7 10 1014.6 - 22.0 - Partly cloudy 10 - - - -
23/04:30am 17.7 SW 6 7 1014.3 - 22.0 - Partly cloudy 10 - - - -
23/04:00am 18.0 SSW 7 10 1014.0 - 22.0 - Partly cloudy 10 - - - -
23/03:30am 18.3 S 8 11 1013.8 - 22.0 - Partly cloudy 10 - - - -
23/03:00am 18.5 S 9 11 1013.7 - 22.0 - Cloudy 10 - - - -
23/02:30am 18.6 S 9 13 1013.9 - 22.0 - Partly cloudy 10 - - - -
23/02:00am 18.3 WSW 6 8 1013.8 - 22.0 - Partly cloudy 10 - - - -
23/01:30am 18.1 WNW 4 5 1013.9 - 22.0 - Partly cloudy 10 - - - -
23/01:00am 18.4 WSW 5 8 1014.1 - 21.8 - Partly cloudy 10 - - - -
23/12:30am 19.8 SSE 6 11 1014.4 - 21.8 - Partly cloudy 10 - - - -
23/12:00am 21.3 ESE 9 14 1014.4 - 21.8 - Cloudy 10 - - - -
 
Date/Time
EST
Temp
°C
Wind Pressure Rain since
9am
mm
Weather Cloud Vis
km
Sea
Height
m
Swell
Dir  Spd
kts
Gust
kts
hPa Trend Height
m
Period
s
Dir
22/11:30pm 21.2 ESE 9 13 1014.9 - 21.8 - Partly cloudy 10 - - - -
22/11:00pm 21.3 ESE 10 14 1015.1 - 21.8 - Partly cloudy 10 - - - -
22/10:30pm 21.1 ESE 12 17 1015.5 - 21.8 - - 10 - - - -
22/10:00pm 21.1 E 10 13 1015.6 - 21.8 - Partly cloudy 10 - - - -
22/09:30pm 21.5 ESE 11 15 1015.7 - 21.8 - Partly cloudy 10 - - - -
22/09:00pm 21.1 SE 9 13 1015.7 - 21.8 - Cloudy 10 - - - -
22/08:30pm 21.0 SE 10 14 1015.7 - 21.8 - Partly cloudy 10 - - - -
22/08:00pm 19.0 SSE 6 10 1015.6 - 21.8 - Partly cloudy 10 - - - -
22/07:30pm 18.8 S 7 8 1015.7 - 21.8 - Partly cloudy 10 - - - -
22/07:00pm 18.6 SSW 1 4 1015.7 - 21.8 - Partly cloudy 10 - - - -
22/06:30pm 18.6 WSW 2 5 1015.5 - 21.8 - Partly cloudy 10 - - - -
22/06:00pm 18.8 WSW 3 5 1015.4 - 21.8 Recent precip. Cloudy 10 - - - -
22/05:30pm 19.3 SSW 3 4 1015.1 - 21.8 - Partly cloudy 10 - - - -
22/05:00pm 19.3 W 4 7 1014.9 - 21.6 - Partly cloudy 10 - - - -
22/04:30pm 19.1 W 6 7 1014.9 - 21.6 - Cloudy 10 - - - -
22/04:00pm 19.3 WSW 7 9 1015.0 - 21.6 - Cloudy 10 - - - -
22/03:30pm 19.4 W 5 6 1015.3 - 21.6 - Cloudy 10 - - - -
22/03:00pm 19.5 S 4 6 1015.5 - 21.4 Recent precip. Mostly cloudy 10 - - - -
22/02:30pm 19.2 S 8 9 1015.5 - 21.4 - Cloudy 10 - - - -
22/02:00pm 18.3 E 4 6 1016.1 - 21.2 - Cloudy 10 - - - -
22/01:39pm 18.4 SE 5 7 1016.1 - 20.6 - Partly cloudy 10 - - - -
22/01:30pm 18.5 SSE 5 7 1016.2 - 20.6 - Partly cloudy 8 - - - -
22/01:26pm 18.2 SSE 6 8 1016.2 - 20.4 - Partly cloudy 7 - - - -
22/01:24pm 18.8 SSE 6 8 1016.2 - 20.4 - Partly cloudy 7 - - - -
22/01:08pm 18.5 SSE 7 9 1016.5 - 19.6 - Partly cloudy 6 - - - -
22/01:00pm 18.5 SSW 8 10 1016.4 - 18.8 - Partly cloudy 10 - - - -
22/12:30pm 18.4 WSW 7 8 1016.3 - 18.6 - Partly cloudy 10 - - - -
22/12:21pm 18.2 WSW 6 8 1016.4 - 18.4 - Partly cloudy 10 - - - -
22/12:19pm 18.3 WSW 6 7 1016.5 - 18.4 - Partly cloudy 10 - - - -
22/12:03pm 18.1 WSW 5 8 1016.7 - 17.8 - Partly cloudy 4 - - - -
22/12:00pm 18.0 SW 6 8 1016.8 - 17.6 Rain Cloudy 4 - - - -
22/11:42am 18.2 SW 6 9 1016.7 - 14.4 - Partly cloudy 6 - - - -
22/11:30am 18.5 SW 7 9 1016.7 - 13.4 - Partly cloudy 10 - - - -
22/11:00am 18.2 SSE 5 7 1016.7 - 12.2 - Cloudy 9 - - - -
22/10:31am 18.0 ESE 7 10 1017.1 - 10.8 - Partly cloudy 7 - - - -
22/10:30am 18.0 ESE 7 10 1017.1 - 10.6 - Partly cloudy 7 - - - -
22/10:20am 18.2 ESE 9 16 1017.2 - 10.2 - Partly cloudy 6 - - - -
22/10:09am 17.9 E 12 17 1017.1 - 8.8 - Partly cloudy 4 - - - -
22/10:00am 17.8 E 14 18 1017.2 - 6.0 - Partly cloudy 4 - - - -
22/09:47am 18.3 ESE 11 18 1017.0 - 3.2 - Partly cloudy 6 - - - -
22/09:31am 18.8 SE 10 14 1017.0 - 1.8 - Partly cloudy 9 - - - -
22/09:30am 18.8 SE 10 14 1017.0 - 1.8 - Partly cloudy 9 - - - -
22/09:00am 18.6 E 14 21 1016.9 - 13.6 Rain Cloudy 4 - - - -
22/08:41am 19.1 S 8 17 1017.0 - 9.6 - Partly cloudy 6 - - - -
22/08:30am 19.6 SW 6 9 1016.5 - 9.0 - Partly cloudy 10 - - - -
22/08:00am 19.0 SW 7 10 1016.7 - 9.0 - Partly cloudy 10 - - - -
22/07:30am 19.7 SSW 9 13 1016.5 - 9.0 - Partly cloudy 10 - - - -
22/07:00am 20.6 SE 12 17 1016.5 - 9.0 - Partly cloudy 10 - - - -
22/06:30am 19.8 SSE 10 16 1016.3 - 9.0 - Partly cloudy 10 - - - -
22/06:00am 18.0 S 12 15 1016.0 - 9.0 Recent precip. Cloudy 10 - - - -
22/05:54am 17.8 S 12 15 1016.1 - 9.0 - Partly cloudy 10 - - - -
22/05:30am 17.6 SSW 9 13 1016.0 - 8.4 - Partly cloudy 10 - - - -
22/05:03am 17.3 SW 7 9 1015.5 - 8.2 - Partly cloudy 10 - - - -
22/05:00am 17.3 SW 6 9 1015.5 - 8.2 - Partly cloudy 10 - - - -
22/04:30am 17.8 S 10 16 1015.4 - 8.2 - Partly cloudy 10 - - - -
22/04:00am 18.6 S 7 12 1015.1 - 8.2 - Partly cloudy 10 - - - -
22/03:30am 19.4 E 11 15 1015.0 - 8.2 - Partly cloudy 10 - - - -
22/03:14am 19.4 SE 11 16 1015.0 - 8.2 - Partly cloudy 10 - - - -
22/03:00am 19.2 SE 13 21 1015.3 - 8.2 Recent precip. Cloudy 10 - - - -
22/02:57am 19.2 SE 11 21 1015.3 - 8.2 - Partly cloudy 10 - - - -
22/02:38am 18.3 S 6 8 1015.2 - 8.2 - Partly cloudy 10 - - - -
22/02:30am 18.6 SSE 10 16 1015.2 - 8.2 - Partly cloudy 10 - - - -
22/02:00am 19.0 SE 9 18 1015.4 - 8.0 - Partly cloudy 10 - - - -
22/01:30am 18.6 SW 6 7 1015.3 - 7.8 - Partly cloudy 10 - - - -
22/01:00am 21.1 SE 13 19 1015.7 - 7.8 - Partly cloudy 10 - - - -
22/12:30am 21.0 SE 13 19 1016.0 - 7.8 - Partly cloudy 10 - - - -
22/12:00am 20.9 SE 13 18 1016.3 - 7.8 - Cloudy 10 - - - -
 
Date/Time
EST
Temp
°C
Wind Pressure Rain since
9am
mm
Weather Cloud Vis
km
Sea
Height
m
Swell
Dir  Spd
kts
Gust
kts
hPa Trend Height
m
Period
s
Dir
21/11:30pm 21.1 SE 14 19 1016.7 - 7.8 - Partly cloudy 10 - - - -
21/11:00pm 20.9 SE 13 18 1017.0 - 7.8 - Partly cloudy 10 - - - -
21/10:30pm 21.1 SE 14 19 1017.2 - 7.8 - Partly cloudy 10 - - - -
21/10:00pm 21.0 SE 15 20 1017.4 - 7.8 - Partly cloudy 10 - - - -
21/09:30pm 21.0 SE 14 20 1017.6 - 7.8 - Partly cloudy 10 - - - -
21/09:00pm 21.0 SE 17 23 1017.8 - 7.8 - Cloudy 10 - - - -
21/08:51pm 20.7 SE 15 21 1017.8 - 7.8 - Partly cloudy 10 - - - -
21/08:30pm 18.3 SW 4 6 1017.9 - 7.8 - Partly cloudy 10 - - - -
21/08:00pm 18.5 S 8 12 1017.8 - 7.8 - Partly cloudy 10 - - - -
21/07:30pm 17.8 SSW 11 16 1017.7 - 7.8 - Partly cloudy 10 - - - -
21/07:00pm 18.0 S 13 19 1017.8 - 7.8 - Partly cloudy 10 - - - -
21/06:47pm 18.3 SSW 13 16 1017.5 - 7.4 - Partly cloudy 10 - - - -
21/06:30pm 18.7 S 14 22 1017.5 - 6.6 - Partly cloudy 3 - - - -
21/06:23pm 18.7 S 15 22 1017.6 - 6.2 - Partly cloudy 4 - - - -
21/06:06pm 20.9 SE 16 32 1017.2 - 3.8 - Partly cloudy 10 - - - -
21/06:00pm 22.0 SE 14 19 1017.2 - 3.8 - Mostly cloudy 10 - - - -
21/05:30pm 22.0 SE 15 20 1017.0 - 3.8 - Partly cloudy 10 - - - -
21/05:00pm 22.4 SE 15 22 1016.5 - 3.8 - Partly cloudy 10 - - - -
21/04:30pm 22.9 SE 16 21 1016.3 - 3.8 - Partly cloudy 10 - - - -
21/04:00pm 23.5 SE 15 20 1016.3 - 3.8 - Partly cloudy 10 - - - -
21/03:30pm 23.6 SE 16 22 1016.2 - 3.8 - Partly cloudy 10 - - - -
21/03:00pm 23.9 SE 15 23 1016.4 - 3.8 - Partly cloudy 10 - - - -
21/02:30pm 23.5 SE 16 22 1016.4 - 3.8 - Partly cloudy 10 - - - -
21/02:00pm 24.5 SE 14 19 1016.9 - 3.8 - Partly cloudy 10 - - - -
21/01:30pm 24.4 SE 14 20 1017.0 - 3.8 - Partly cloudy 10 - - - -
21/01:00pm 24.2 SE 14 18 1017.5 - 3.8 - Partly cloudy 10 - - - -
21/12:30pm 24.1 ESE 15 19 1017.7 - 3.8 - Partly cloudy 10 - - - -
21/12:00pm 23.9 SE 16 21 1017.8 - 3.8 - Cloudy 10 - - - -
21/11:30am 24.2 SE 15 20 1018.1 - 3.8 - Partly cloudy 10 - - - -
21/11:00am 24.1 SE 15 21 1018.1 - 3.8 - Partly cloudy 10 - - - -
21/10:30am 24.0 SE 16 22 1018.2 - 3.8 - Partly cloudy 10 - - - -
21/10:00am 22.8 SE 16 22 1018.3 - 3.8 - Partly cloudy 10 - - - -
21/09:34am 22.3 SSE 12 19 1018.3 - 3.8 - Partly cloudy 10 - - - -
21/09:30am 21.1 SSE 12 16 1018.4 - 3.8 - Partly cloudy 10 - - - -
21/09:11am 20.0 SSW 8 10 1018.8 - 1.4 - Partly cloudy 6 - - - -
21/09:00am 20.6 SSW 11 15 1018.5 - 9.4 - Cloudy 10 - - - -
21/08:30am 20.5 SSW 11 15 1018.5 - 9.4 - Partly cloudy 10 - - - -

Other Formats:

Comma delimited format used in spreadsheet applications
http://www.bom.gov.au/fwo/IDQ60701/IDQ60701.94569.axf

JavaScript Object Notation format (JSON) in row-major order
http://www.bom.gov.au/fwo/IDQ60701/IDQ60701.94569.json